sensor_id;sensor_type;location;lat;lon;timestamp;P1;durP1;ratioP1;P2;durP2;ratioP2
59390;SDS011;53405;57.012;40.984;2022-12-08T00:00:28;20.63;;;9.10;;
59390;SDS011;53405;57.012;40.984;2022-12-08T00:03:15;20.75;;;8.43;;
59390;SDS011;53405;57.012;40.984;2022-12-08T00:06:03;22.25;;;8.98;;
59390;SDS011;53405;57.012;40.984;2022-12-08T00:09:15;27.98;;;11.43;;
59390;SDS011;53405;57.012;40.984;2022-12-08T00:12:15;23.10;;;10.30;;
59390;SDS011;53405;57.012;40.984;2022-12-08T00:15:03;21.48;;;9.43;;
59390;SDS011;53405;57.012;40.984;2022-12-08T00:17:51;25.02;;;9.77;;
59390;SDS011;53405;57.012;40.984;2022-12-08T00:20:39;25.48;;;10.18;;
59390;SDS011;53405;57.012;40.984;2022-12-08T00:23:26;23.60;;;10.80;;
59390;SDS011;53405;57.012;40.984;2022-12-08T00:26:14;22.23;;;9.18;;
59390;SDS011;53405;57.012;40.984;2022-12-08T00:29:02;23.75;;;9.68;;
59390;SDS011;53405;57.012;40.984;2022-12-08T00:31:50;27.42;;;9.90;;
59390;SDS011;53405;57.012;40.984;2022-12-08T00:34:38;24.20;;;8.60;;
59390;SDS011;53405;57.012;40.984;2022-12-08T00:37:26;24.95;;;10.02;;
59390;SDS011;53405;57.012;40.984;2022-12-08T00:40:13;24.55;;;10.27;;
59390;SDS011;53405;57.012;40.984;2022-12-08T00:43:01;23.67;;;11.13;;
59390;SDS011;53405;57.012;40.984;2022-12-08T00:45:49;25.38;;;10.45;;
59390;SDS011;53405;57.012;40.984;2022-12-08T00:48:37;22.23;;;9.68;;
59390;SDS011;53405;57.012;40.984;2022-12-08T00:51:24;27.52;;;11.48;;
59390;SDS011;53405;57.012;40.984;2022-12-08T00:54:12;27.35;;;11.25;;
59390;SDS011;53405;57.012;40.984;2022-12-08T00:57:00;23.65;;;10.13;;
59390;SDS011;53405;57.012;40.984;2022-12-08T00:59:48;29.45;;;12.00;;
59390;SDS011;53405;57.012;40.984;2022-12-08T01:02:35;28.52;;;11.20;;
59390;SDS011;53405;57.012;40.984;2022-12-08T01:05:23;24.83;;;10.77;;
59390;SDS011;53405;57.012;40.984;2022-12-08T01:08:10;29.23;;;11.68;;
59390;SDS011;53405;57.012;40.984;2022-12-08T01:11:08;26.63;;;9.88;;
59390;SDS011;53405;57.012;40.984;2022-12-08T01:13:58;27.38;;;11.30;;
59390;SDS011;53405;57.012;40.984;2022-12-08T01:16:45;29.83;;;12.68;;
59390;SDS011;53405;57.012;40.984;2022-12-08T01:19:33;26.63;;;11.00;;
59390;SDS011;53405;57.012;40.984;2022-12-08T01:22:21;23.00;;;8.50;;
59390;SDS011;53405;57.012;40.984;2022-12-08T01:25:08;22.77;;;10.88;;
59390;SDS011;53405;57.012;40.984;2022-12-08T01:27:56;18.35;;;8.23;;
59390;SDS011;53405;57.012;40.984;2022-12-08T01:30:43;18.20;;;7.60;;
59390;SDS011;53405;57.012;40.984;2022-12-08T01:33:31;27.08;;;11.32;;
59390;SDS011;53405;57.012;40.984;2022-12-08T01:36:25;23.98;;;10.50;;
59390;SDS011;53405;57.012;40.984;2022-12-08T01:39:16;19.52;;;8.10;;
59390;SDS011;53405;57.012;40.984;2022-12-08T01:42:05;25.23;;;10.70;;
59390;SDS011;53405;57.012;40.984;2022-12-08T01:44:54;19.05;;;8.40;;
59390;SDS011;53405;57.012;40.984;2022-12-08T01:47:45;23.05;;;9.77;;
59390;SDS011;53405;57.012;40.984;2022-12-08T01:50:36;25.05;;;9.55;;
59390;SDS011;53405;57.012;40.984;2022-12-08T01:53:28;22.45;;;9.07;;
59390;SDS011;53405;57.012;40.984;2022-12-08T01:56:26;18.95;;;9.07;;
59390;SDS011;53405;57.012;40.984;2022-12-08T01:59:20;18.70;;;7.32;;
59390;SDS011;53405;57.012;40.984;2022-12-08T02:02:09;22.65;;;10.07;;
59390;SDS011;53405;57.012;40.984;2022-12-08T02:04:58;18.67;;;7.63;;
59390;SDS011;53405;57.012;40.984;2022-12-08T02:07:46;19.77;;;7.85;;
59390;SDS011;53405;57.012;40.984;2022-12-08T02:10:36;21.47;;;8.20;;
59390;SDS011;53405;57.012;40.984;2022-12-08T02:13:25;20.80;;;9.25;;
59390;SDS011;53405;57.012;40.984;2022-12-08T02:22:27;22.38;;;9.25;;
59390;SDS011;53405;57.012;40.984;2022-12-08T02:25:24;22.60;;;9.02;;
59390;SDS011;53405;57.012;40.984;2022-12-08T02:38:01;23.08;;;9.18;;
59390;SDS011;53405;57.012;40.984;2022-12-08T02:47:13;18.67;;;7.93;;
59390;SDS011;53405;57.012;40.984;2022-12-08T02:50:04;17.98;;;7.00;;
59390;SDS011;53405;57.012;40.984;2022-12-08T02:52:53;20.30;;;9.23;;
59390;SDS011;53405;57.012;40.984;2022-12-08T02:59:08;17.52;;;7.07;;
59390;SDS011;53405;57.012;40.984;2022-12-08T03:02:22;16.88;;;7.25;;
59390;SDS011;53405;57.012;40.984;2022-12-08T03:11:15;24.35;;;9.70;;
59390;SDS011;53405;57.012;40.984;2022-12-08T03:14:24;19.38;;;6.65;;
59390;SDS011;53405;57.012;40.984;2022-12-08T03:17:14;21.80;;;9.60;;
59390;SDS011;53405;57.012;40.984;2022-12-08T03:20:07;21.23;;;8.65;;
59390;SDS011;53405;57.012;40.984;2022-12-08T03:22:59;22.55;;;9.30;;
59390;SDS011;53405;57.012;40.984;2022-12-08T03:25:55;20.20;;;8.98;;
59390;SDS011;53405;57.012;40.984;2022-12-08T03:28:50;22.17;;;8.88;;
59390;SDS011;53405;57.012;40.984;2022-12-08T03:31:39;19.05;;;9.05;;
59390;SDS011;53405;57.012;40.984;2022-12-08T03:34:32;18.52;;;9.05;;
59390;SDS011;53405;57.012;40.984;2022-12-08T03:40:10;19.02;;;7.07;;
59390;SDS011;53405;57.012;40.984;2022-12-08T03:43:00;18.60;;;7.88;;
59390;SDS011;53405;57.012;40.984;2022-12-08T03:45:48;18.40;;;8.32;;
59390;SDS011;53405;57.012;40.984;2022-12-08T03:48:36;20.73;;;7.90;;
59390;SDS011;53405;57.012;40.984;2022-12-08T03:51:24;18.50;;;8.40;;
59390;SDS011;53405;57.012;40.984;2022-12-08T03:54:13;20.33;;;8.35;;
59390;SDS011;53405;57.012;40.984;2022-12-08T03:57:00;15.90;;;6.90;;
59390;SDS011;53405;57.012;40.984;2022-12-08T03:59:48;20.13;;;7.93;;
59390;SDS011;53405;57.012;40.984;2022-12-08T04:02:36;15.32;;;6.90;;
59390;SDS011;53405;57.012;40.984;2022-12-08T04:05:23;19.83;;;8.65;;
59390;SDS011;53405;57.012;40.984;2022-12-08T04:08:11;23.58;;;9.65;;
59390;SDS011;53405;57.012;40.984;2022-12-08T04:10:58;22.48;;;9.93;;
59390;SDS011;53405;57.012;40.984;2022-12-08T04:13:46;20.45;;;8.73;;
59390;SDS011;53405;57.012;40.984;2022-12-08T04:16:34;22.98;;;9.45;;
59390;SDS011;53405;57.012;40.984;2022-12-08T04:19:21;18.70;;;8.65;;
59390;SDS011;53405;57.012;40.984;2022-12-08T04:22:09;21.50;;;8.50;;
59390;SDS011;53405;57.012;40.984;2022-12-08T04:24:57;23.80;;;10.55;;
59390;SDS011;53405;57.012;40.984;2022-12-08T04:27:44;25.63;;;11.57;;
59390;SDS011;53405;57.012;40.984;2022-12-08T04:30:32;20.50;;;8.88;;
59390;SDS011;53405;57.012;40.984;2022-12-08T04:33:20;25.00;;;12.23;;
59390;SDS011;53405;57.012;40.984;2022-12-08T04:36:08;20.05;;;8.73;;
59390;SDS011;53405;57.012;40.984;2022-12-08T04:38:56;18.70;;;9.13;;
59390;SDS011;53405;57.012;40.984;2022-12-08T04:41:44;19.63;;;9.30;;
59390;SDS011;53405;57.012;40.984;2022-12-08T04:44:32;21.80;;;9.23;;
59390;SDS011;53405;57.012;40.984;2022-12-08T04:47:19;32.78;;;12.55;;
59390;SDS011;53405;57.012;40.984;2022-12-08T04:50:08;22.30;;;9.45;;
59390;SDS011;53405;57.012;40.984;2022-12-08T04:52:56;20.25;;;8.45;;
59390;SDS011;53405;57.012;40.984;2022-12-08T04:55:44;17.75;;;7.22;;
59390;SDS011;53405;57.012;40.984;2022-12-08T04:58:34;19.83;;;9.65;;
59390;SDS011;53405;57.012;40.984;2022-12-08T05:01:22;19.52;;;9.35;;
59390;SDS011;53405;57.012;40.984;2022-12-08T05:04:09;19.50;;;8.13;;
59390;SDS011;53405;57.012;40.984;2022-12-08T05:06:57;20.50;;;9.25;;
59390;SDS011;53405;57.012;40.984;2022-12-08T05:09:45;20.58;;;9.52;;
59390;SDS011;53405;57.012;40.984;2022-12-08T05:12:33;27.27;;;11.77;;
59390;SDS011;53405;57.012;40.984;2022-12-08T05:15:20;13.65;;;6.22;;
59390;SDS011;53405;57.012;40.984;2022-12-08T05:18:08;20.13;;;8.35;;
59390;SDS011;53405;57.012;40.984;2022-12-08T05:20:56;15.45;;;6.13;;
59390;SDS011;53405;57.012;40.984;2022-12-08T05:23:43;18.20;;;8.20;;
59390;SDS011;53405;57.012;40.984;2022-12-08T05:26:31;21.63;;;9.68;;
59390;SDS011;53405;57.012;40.984;2022-12-08T05:29:19;17.40;;;7.35;;
59390;SDS011;53405;57.012;40.984;2022-12-08T05:32:07;19.02;;;8.63;;
59390;SDS011;53405;57.012;40.984;2022-12-08T05:34:54;18.67;;;8.32;;
59390;SDS011;53405;57.012;40.984;2022-12-08T05:37:42;15.10;;;6.03;;
59390;SDS011;53405;57.012;40.984;2022-12-08T05:40:30;20.88;;;8.38;;
59390;SDS011;53405;57.012;40.984;2022-12-08T05:43:17;13.40;;;6.68;;
59390;SDS011;53405;57.012;40.984;2022-12-08T05:46:06;17.15;;;7.30;;
59390;SDS011;53405;57.012;40.984;2022-12-08T05:48:54;16.35;;;7.45;;
59390;SDS011;53405;57.012;40.984;2022-12-08T05:51:42;21.58;;;8.90;;
59390;SDS011;53405;57.012;40.984;2022-12-08T05:54:30;21.55;;;10.45;;
59390;SDS011;53405;57.012;40.984;2022-12-08T05:57:18;20.40;;;9.07;;
59390;SDS011;53405;57.012;40.984;2022-12-08T06:00:05;19.77;;;7.75;;
59390;SDS011;53405;57.012;40.984;2022-12-08T06:02:58;16.45;;;7.50;;
59390;SDS011;53405;57.012;40.984;2022-12-08T06:05:46;17.95;;;6.75;;
59390;SDS011;53405;57.012;40.984;2022-12-08T06:08:34;17.65;;;8.82;;
59390;SDS011;53405;57.012;40.984;2022-12-08T06:18:13;20.10;;;7.63;;
59390;SDS011;53405;57.012;40.984;2022-12-08T06:21:02;18.15;;;7.88;;
59390;SDS011;53405;57.012;40.984;2022-12-08T06:23:53;10.43;;;5.75;;
59390;SDS011;53405;57.012;40.984;2022-12-08T06:26:41;16.30;;;6.13;;
59390;SDS011;53405;57.012;40.984;2022-12-08T06:29:29;16.90;;;7.60;;
59390;SDS011;53405;57.012;40.984;2022-12-08T06:32:17;18.25;;;8.00;;
59390;SDS011;53405;57.012;40.984;2022-12-08T06:35:07;16.10;;;7.63;;
59390;SDS011;53405;57.012;40.984;2022-12-08T06:37:55;14.90;;;7.07;;
59390;SDS011;53405;57.012;40.984;2022-12-08T06:40:43;18.52;;;7.65;;
59390;SDS011;53405;57.012;40.984;2022-12-08T06:43:31;20.17;;;8.23;;
59390;SDS011;53405;57.012;40.984;2022-12-08T06:46:19;18.63;;;7.97;;
59390;SDS011;53405;57.012;40.984;2022-12-08T06:49:06;17.20;;;7.30;;
59390;SDS011;53405;57.012;40.984;2022-12-08T06:51:54;15.82;;;6.30;;
59390;SDS011;53405;57.012;40.984;2022-12-08T06:54:41;15.73;;;6.00;;
59390;SDS011;53405;57.012;40.984;2022-12-08T06:57:29;8.38;;;4.07;;
59390;SDS011;53405;57.012;40.984;2022-12-08T07:00:17;16.85;;;5.68;;
59390;SDS011;53405;57.012;40.984;2022-12-08T07:03:05;14.75;;;6.25;;
59390;SDS011;53405;57.012;40.984;2022-12-08T07:05:55;19.50;;;8.77;;
59390;SDS011;53405;57.012;40.984;2022-12-08T07:08:47;17.00;;;6.95;;
59390;SDS011;53405;57.012;40.984;2022-12-08T07:11:37;23.80;;;8.23;;
59390;SDS011;53405;57.012;40.984;2022-12-08T07:14:25;17.75;;;7.78;;
59390;SDS011;53405;57.012;40.984;2022-12-08T07:17:12;11.45;;;5.50;;
59390;SDS011;53405;57.012;40.984;2022-12-08T07:20:00;15.90;;;5.35;;
59390;SDS011;53405;57.012;40.984;2022-12-08T07:22:49;13.40;;;6.00;;
59390;SDS011;53405;57.012;40.984;2022-12-08T07:25:38;14.05;;;5.88;;
59390;SDS011;53405;57.012;40.984;2022-12-08T07:28:26;14.35;;;5.63;;
59390;SDS011;53405;57.012;40.984;2022-12-08T07:31:20;11.38;;;5.13;;
59390;SDS011;53405;57.012;40.984;2022-12-08T07:34:10;11.63;;;5.60;;
59390;SDS011;53405;57.012;40.984;2022-12-08T07:36:59;14.43;;;6.13;;
59390;SDS011;53405;57.012;40.984;2022-12-08T07:39:47;14.93;;;5.38;;
59390;SDS011;53405;57.012;40.984;2022-12-08T07:42:35;12.07;;;4.53;;
59390;SDS011;53405;57.012;40.984;2022-12-08T07:45:23;18.38;;;6.95;;
59390;SDS011;53405;57.012;40.984;2022-12-08T07:48:17;16.65;;;7.15;;
59390;SDS011;53405;57.012;40.984;2022-12-08T07:51:05;18.10;;;6.97;;
59390;SDS011;53405;57.012;40.984;2022-12-08T07:53:53;17.55;;;7.97;;
59390;SDS011;53405;57.012;40.984;2022-12-08T07:56:41;19.05;;;8.38;;
59390;SDS011;53405;57.012;40.984;2022-12-08T07:59:28;14.93;;;6.70;;
59390;SDS011;53405;57.012;40.984;2022-12-08T08:02:16;17.48;;;6.57;;
59390;SDS011;53405;57.012;40.984;2022-12-08T08:05:12;15.07;;;6.60;;
59390;SDS011;53405;57.012;40.984;2022-12-08T08:08:00;14.60;;;5.85;;
59390;SDS011;53405;57.012;40.984;2022-12-08T08:10:47;14.90;;;5.63;;
59390;SDS011;53405;57.012;40.984;2022-12-08T08:13:35;14.23;;;5.97;;
59390;SDS011;53405;57.012;40.984;2022-12-08T08:16:23;15.18;;;6.90;;
59390;SDS011;53405;57.012;40.984;2022-12-08T08:19:10;15.07;;;5.75;;
59390;SDS011;53405;57.012;40.984;2022-12-08T08:21:58;15.50;;;5.78;;
59390;SDS011;53405;57.012;40.984;2022-12-08T08:24:46;12.10;;;4.95;;
59390;SDS011;53405;57.012;40.984;2022-12-08T08:27:33;12.63;;;5.97;;
59390;SDS011;53405;57.012;40.984;2022-12-08T08:30:21;13.38;;;4.65;;
59390;SDS011;53405;57.012;40.984;2022-12-08T08:33:09;12.82;;;5.68;;
59390;SDS011;53405;57.012;40.984;2022-12-08T08:35:56;14.23;;;5.28;;
59390;SDS011;53405;57.012;40.984;2022-12-08T08:38:44;12.35;;;5.45;;
59390;SDS011;53405;57.012;40.984;2022-12-08T08:41:32;11.73;;;4.88;;
59390;SDS011;53405;57.012;40.984;2022-12-08T08:44:21;10.57;;;4.60;;
59390;SDS011;53405;57.012;40.984;2022-12-08T08:47:09;15.10;;;5.65;;
59390;SDS011;53405;57.012;40.984;2022-12-08T08:49:57;14.88;;;5.78;;
59390;SDS011;53405;57.012;40.984;2022-12-08T08:52:44;12.10;;;5.20;;
59390;SDS011;53405;57.012;40.984;2022-12-08T08:55:32;15.20;;;5.95;;
59390;SDS011;53405;57.012;40.984;2022-12-08T08:58:20;14.38;;;5.25;;
59390;SDS011;53405;57.012;40.984;2022-12-08T09:01:07;13.63;;;5.38;;
59390;SDS011;53405;57.012;40.984;2022-12-08T09:03:55;13.40;;;4.97;;
59390;SDS011;53405;57.012;40.984;2022-12-08T09:06:43;15.90;;;6.13;;
59390;SDS011;53405;57.012;40.984;2022-12-08T09:09:31;18.25;;;7.05;;
59390;SDS011;53405;57.012;40.984;2022-12-08T09:12:18;36.92;;;16.30;;
59390;SDS011;53405;57.012;40.984;2022-12-08T09:15:06;17.20;;;6.22;;
59390;SDS011;53405;57.012;40.984;2022-12-08T09:17:54;27.00;;;11.43;;
59390;SDS011;53405;57.012;40.984;2022-12-08T09:20:42;19.00;;;8.40;;
59390;SDS011;53405;57.012;40.984;2022-12-08T09:23:29;15.65;;;6.75;;
59390;SDS011;53405;57.012;40.984;2022-12-08T09:26:21;15.68;;;6.55;;
59390;SDS011;53405;57.012;40.984;2022-12-08T09:29:09;17.25;;;7.25;;
59390;SDS011;53405;57.012;40.984;2022-12-08T09:31:58;13.13;;;5.82;;
59390;SDS011;53405;57.012;40.984;2022-12-08T09:34:45;9.55;;;3.92;;
59390;SDS011;53405;57.012;40.984;2022-12-08T09:37:37;14.43;;;6.35;;
59390;SDS011;53405;57.012;40.984;2022-12-08T09:40:25;9.50;;;3.58;;
59390;SDS011;53405;57.012;40.984;2022-12-08T09:43:23;8.63;;;3.28;;
59390;SDS011;53405;57.012;40.984;2022-12-08T09:46:33;13.93;;;4.38;;
59390;SDS011;53405;57.012;40.984;2022-12-08T09:49:25;13.60;;;5.15;;
59390;SDS011;53405;57.012;40.984;2022-12-08T09:53:15;13.40;;;5.87;;
59390;SDS011;53405;57.012;40.984;2022-12-08T10:01:58;15.13;;;6.05;;
59390;SDS011;53405;57.012;40.984;2022-12-08T10:04:47;14.38;;;5.47;;
59390;SDS011;53405;57.012;40.984;2022-12-08T10:07:39;12.23;;;5.40;;
59390;SDS011;53405;57.012;40.984;2022-12-08T10:10:46;14.10;;;5.20;;
59390;SDS011;53405;57.012;40.984;2022-12-08T10:17:10;10.43;;;4.18;;
59390;SDS011;53405;57.012;40.984;2022-12-08T10:20:33;11.70;;;5.25;;
59390;SDS011;53405;57.012;40.984;2022-12-08T10:26:25;15.88;;;5.18;;
59390;SDS011;53405;57.012;40.984;2022-12-08T10:29:13;9.32;;;3.60;;
59390;SDS011;53405;57.012;40.984;2022-12-08T10:32:01;8.38;;;3.90;;
59390;SDS011;53405;57.012;40.984;2022-12-08T10:35:21;12.85;;;5.07;;
59390;SDS011;53405;57.012;40.984;2022-12-08T10:41:13;9.93;;;4.38;;
59390;SDS011;53405;57.012;40.984;2022-12-08T10:44:04;11.02;;;3.83;;
59390;SDS011;53405;57.012;40.984;2022-12-08T10:46:51;9.85;;;4.20;;
59390;SDS011;53405;57.012;40.984;2022-12-08T10:49:39;10.70;;;4.88;;
59390;SDS011;53405;57.012;40.984;2022-12-08T10:52:26;13.88;;;4.93;;
59390;SDS011;53405;57.012;40.984;2022-12-08T10:55:15;15.65;;;5.63;;
59390;SDS011;53405;57.012;40.984;2022-12-08T10:58:04;9.98;;;4.03;;
59390;SDS011;53405;57.012;40.984;2022-12-08T11:07:28;11.15;;;5.07;;
59390;SDS011;53405;57.012;40.984;2022-12-08T11:10:17;14.13;;;5.70;;
59390;SDS011;53405;57.012;40.984;2022-12-08T11:13:09;13.63;;;5.00;;
59390;SDS011;53405;57.012;40.984;2022-12-08T11:16:05;11.27;;;5.32;;
59390;SDS011;53405;57.012;40.984;2022-12-08T11:18:54;11.60;;;5.03;;
59390;SDS011;53405;57.012;40.984;2022-12-08T11:24:32;11.10;;;5.32;;
59390;SDS011;53405;57.012;40.984;2022-12-08T11:27:23;21.65;;;9.10;;
59390;SDS011;53405;57.012;40.984;2022-12-08T11:30:14;14.15;;;5.85;;
59390;SDS011;53405;57.012;40.984;2022-12-08T11:33:11;8.07;;;2.95;;
59390;SDS011;53405;57.012;40.984;2022-12-08T11:36:02;14.98;;;6.22;;
59390;SDS011;53405;57.012;40.984;2022-12-08T11:38:54;10.88;;;4.47;;
59390;SDS011;53405;57.012;40.984;2022-12-08T11:41:45;7.75;;;3.92;;
59390;SDS011;53405;57.012;40.984;2022-12-08T11:44:37;15.73;;;5.60;;
59390;SDS011;53405;57.012;40.984;2022-12-08T11:47:33;10.70;;;4.60;;
59390;SDS011;53405;57.012;40.984;2022-12-08T11:50:29;12.82;;;5.65;;
59390;SDS011;53405;57.012;40.984;2022-12-08T11:56:35;13.82;;;5.53;;
59390;SDS011;53405;57.012;40.984;2022-12-08T11:59:36;13.45;;;5.75;;
59390;SDS011;53405;57.012;40.984;2022-12-08T12:02:31;13.75;;;5.28;;
59390;SDS011;53405;57.012;40.984;2022-12-08T12:05:35;15.30;;;4.82;;
59390;SDS011;53405;57.012;40.984;2022-12-08T12:18:12;14.43;;;6.45;;
59390;SDS011;53405;57.012;40.984;2022-12-08T12:24:33;14.88;;;5.32;;
59390;SDS011;53405;57.012;40.984;2022-12-08T12:27:26;11.52;;;4.88;;
59390;SDS011;53405;57.012;40.984;2022-12-08T12:30:28;11.38;;;5.07;;
59390;SDS011;53405;57.012;40.984;2022-12-08T12:33:36;13.10;;;5.70;;
59390;SDS011;53405;57.012;40.984;2022-12-08T12:36:24;13.90;;;5.45;;
59390;SDS011;53405;57.012;40.984;2022-12-08T12:39:12;13.80;;;5.47;;
59390;SDS011;53405;57.012;40.984;2022-12-08T12:42:02;13.07;;;5.45;;
59390;SDS011;53405;57.012;40.984;2022-12-08T12:44:57;13.93;;;6.45;;
59390;SDS011;53405;57.012;40.984;2022-12-08T12:48:20;13.20;;;6.13;;
59390;SDS011;53405;57.012;40.984;2022-12-08T12:54:20;12.40;;;5.45;;
59390;SDS011;53405;57.012;40.984;2022-12-08T13:02:51;12.23;;;5.30;;
59390;SDS011;53405;57.012;40.984;2022-12-08T13:05:48;14.95;;;5.75;;
59390;SDS011;53405;57.012;40.984;2022-12-08T13:08:39;14.10;;;6.07;;
59390;SDS011;53405;57.012;40.984;2022-12-08T13:11:48;10.15;;;4.18;;
59390;SDS011;53405;57.012;40.984;2022-12-08T13:14:45;13.00;;;5.70;;
59390;SDS011;53405;57.012;40.984;2022-12-08T13:17:36;12.15;;;5.05;;
59390;SDS011;53405;57.012;40.984;2022-12-08T13:20:24;13.27;;;5.10;;
59390;SDS011;53405;57.012;40.984;2022-12-08T13:23:24;11.73;;;4.95;;
59390;SDS011;53405;57.012;40.984;2022-12-08T13:26:18;11.63;;;5.20;;
59390;SDS011;53405;57.012;40.984;2022-12-08T13:29:12;12.30;;;5.43;;
59390;SDS011;53405;57.012;40.984;2022-12-08T13:32:50;15.02;;;6.43;;
59390;SDS011;53405;57.012;40.984;2022-12-08T13:45:23;11.52;;;5.07;;
59390;SDS011;53405;57.012;40.984;2022-12-08T13:48:39;11.13;;;4.85;;
59390;SDS011;53405;57.012;40.984;2022-12-08T13:51:53;12.93;;;5.28;;
59390;SDS011;53405;57.012;40.984;2022-12-08T13:55:02;11.27;;;5.65;;
59390;SDS011;53405;57.012;40.984;2022-12-08T13:58:19;10.27;;;5.00;;
59390;SDS011;53405;57.012;40.984;2022-12-08T14:04:12;11.88;;;4.95;;
59390;SDS011;53405;57.012;40.984;2022-12-08T14:07:23;12.43;;;5.38;;
59390;SDS011;53405;57.012;40.984;2022-12-08T14:10:18;14.13;;;5.63;;
59390;SDS011;53405;57.012;40.984;2022-12-08T14:13:11;10.55;;;4.60;;
59390;SDS011;53405;57.012;40.984;2022-12-08T14:16:00;9.93;;;4.63;;
59390;SDS011;53405;57.012;40.984;2022-12-08T14:18:49;10.68;;;4.90;;
59390;SDS011;53405;57.012;40.984;2022-12-08T14:21:37;13.47;;;6.60;;
59390;SDS011;53405;57.012;40.984;2022-12-08T14:24:25;16.13;;;5.88;;
59390;SDS011;53405;57.012;40.984;2022-12-08T14:27:20;15.75;;;6.13;;
59390;SDS011;53405;57.012;40.984;2022-12-08T14:33:02;15.07;;;6.13;;
59390;SDS011;53405;57.012;40.984;2022-12-08T14:35:53;10.27;;;4.82;;
59390;SDS011;53405;57.012;40.984;2022-12-08T14:38:41;12.32;;;4.72;;
59390;SDS011;53405;57.012;40.984;2022-12-08T14:41:31;13.43;;;5.43;;
59390;SDS011;53405;57.012;40.984;2022-12-08T14:44:22;12.95;;;5.38;;
59390;SDS011;53405;57.012;40.984;2022-12-08T14:47:10;12.05;;;5.30;;
59390;SDS011;53405;57.012;40.984;2022-12-08T14:50:35;10.77;;;5.22;;
59390;SDS011;53405;57.012;40.984;2022-12-08T14:53:21;13.50;;;5.57;;
59390;SDS011;53405;57.012;40.984;2022-12-08T14:56:23;13.75;;;6.15;;
59390;SDS011;53405;57.012;40.984;2022-12-08T14:59:27;8.85;;;4.35;;
59390;SDS011;53405;57.012;40.984;2022-12-08T15:05:13;14.02;;;5.80;;
59390;SDS011;53405;57.012;40.984;2022-12-08T15:08:04;12.77;;;5.78;;
59390;SDS011;53405;57.012;40.984;2022-12-08T15:14:27;9.45;;;4.60;;
59390;SDS011;53405;57.012;40.984;2022-12-08T15:23:33;10.95;;;4.57;;
59390;SDS011;53405;57.012;40.984;2022-12-08T15:26:28;15.27;;;6.03;;
59390;SDS011;53405;57.012;40.984;2022-12-08T15:29:26;13.75;;;5.88;;
59390;SDS011;53405;57.012;40.984;2022-12-08T15:35:04;13.25;;;5.70;;
59390;SDS011;53405;57.012;40.984;2022-12-08T15:37:52;11.95;;;5.45;;
59390;SDS011;53405;57.012;40.984;2022-12-08T15:40:39;12.50;;;5.35;;
59390;SDS011;53405;57.012;40.984;2022-12-08T15:43:28;12.15;;;4.60;;
59390;SDS011;53405;57.012;40.984;2022-12-08T15:46:17;12.02;;;5.88;;
59390;SDS011;53405;57.012;40.984;2022-12-08T15:49:05;5.68;;;3.35;;
59390;SDS011;53405;57.012;40.984;2022-12-08T15:51:52;11.70;;;5.35;;
59390;SDS011;53405;57.012;40.984;2022-12-08T15:54:44;8.02;;;3.35;;
59390;SDS011;53405;57.012;40.984;2022-12-08T15:57:32;4.93;;;2.40;;
59390;SDS011;53405;57.012;40.984;2022-12-08T16:00:40;12.35;;;4.93;;
59390;SDS011;53405;57.012;40.984;2022-12-08T16:03:43;10.15;;;4.75;;
59390;SDS011;53405;57.012;40.984;2022-12-08T16:06:51;11.52;;;5.32;;
59390;SDS011;53405;57.012;40.984;2022-12-08T16:10:01;9.68;;;4.35;;
59390;SDS011;53405;57.012;40.984;2022-12-08T16:12:49;11.75;;;4.97;;
59390;SDS011;53405;57.012;40.984;2022-12-08T16:16:22;12.80;;;5.75;;
59390;SDS011;53405;57.012;40.984;2022-12-08T16:19:13;11.20;;;4.80;;
59390;SDS011;53405;57.012;40.984;2022-12-08T16:22:00;12.93;;;5.03;;
59390;SDS011;53405;57.012;40.984;2022-12-08T16:25:09;10.97;;;5.07;;
59390;SDS011;53405;57.012;40.984;2022-12-08T16:28:08;11.07;;;5.60;;
59390;SDS011;53405;57.012;40.984;2022-12-08T16:31:15;10.70;;;4.53;;
59390;SDS011;53405;57.012;40.984;2022-12-08T16:34:06;11.68;;;5.80;;
59390;SDS011;53405;57.012;40.984;2022-12-08T16:36:53;11.43;;;5.35;;
59390;SDS011;53405;57.012;40.984;2022-12-08T16:39:41;11.70;;;5.43;;
59390;SDS011;53405;57.012;40.984;2022-12-08T16:42:31;11.60;;;6.15;;
59390;SDS011;53405;57.012;40.984;2022-12-08T16:45:27;11.25;;;5.32;;
59390;SDS011;53405;57.012;40.984;2022-12-08T16:48:15;12.93;;;5.32;;
59390;SDS011;53405;57.012;40.984;2022-12-08T16:51:03;13.82;;;6.35;;
59390;SDS011;53405;57.012;40.984;2022-12-08T16:53:55;11.75;;;5.35;;
59390;SDS011;53405;57.012;40.984;2022-12-08T16:56:44;14.48;;;6.13;;
59390;SDS011;53405;57.012;40.984;2022-12-08T16:59:32;14.55;;;5.68;;
59390;SDS011;53405;57.012;40.984;2022-12-08T17:02:27;12.32;;;5.60;;
59390;SDS011;53405;57.012;40.984;2022-12-08T17:05:26;9.05;;;3.78;;
59390;SDS011;53405;57.012;40.984;2022-12-08T17:08:13;13.07;;;5.38;;
59390;SDS011;53405;57.012;40.984;2022-12-08T17:11:01;11.10;;;4.82;;
59390;SDS011;53405;57.012;40.984;2022-12-08T17:13:54;12.40;;;6.25;;
59390;SDS011;53405;57.012;40.984;2022-12-08T17:16:43;16.75;;;5.20;;
59390;SDS011;53405;57.012;40.984;2022-12-08T17:19:31;11.18;;;5.47;;
59390;SDS011;53405;57.012;40.984;2022-12-08T17:22:19;12.88;;;5.68;;
59390;SDS011;53405;57.012;40.984;2022-12-08T17:25:07;10.90;;;5.03;;
59390;SDS011;53405;57.012;40.984;2022-12-08T17:27:55;8.73;;;4.80;;
59390;SDS011;53405;57.012;40.984;2022-12-08T17:30:43;11.18;;;5.65;;
59390;SDS011;53405;57.012;40.984;2022-12-08T17:33:31;12.32;;;6.00;;
59390;SDS011;53405;57.012;40.984;2022-12-08T17:36:18;9.95;;;5.15;;
59390;SDS011;53405;57.012;40.984;2022-12-08T17:42:00;10.57;;;4.50;;
59390;SDS011;53405;57.012;40.984;2022-12-08T17:44:48;12.85;;;5.75;;
59390;SDS011;53405;57.012;40.984;2022-12-08T17:47:36;11.90;;;5.28;;
59390;SDS011;53405;57.012;40.984;2022-12-08T17:50:24;11.30;;;5.65;;
59390;SDS011;53405;57.012;40.984;2022-12-08T17:53:13;15.13;;;6.90;;
59390;SDS011;53405;57.012;40.984;2022-12-08T17:56:01;13.43;;;5.65;;
59390;SDS011;53405;57.012;40.984;2022-12-08T17:58:50;12.32;;;5.95;;
59390;SDS011;53405;57.012;40.984;2022-12-08T18:01:40;14.68;;;5.15;;
59390;SDS011;53405;57.012;40.984;2022-12-08T18:04:27;13.27;;;5.60;;
59390;SDS011;53405;57.012;40.984;2022-12-08T18:07:15;12.25;;;5.50;;
59390;SDS011;53405;57.012;40.984;2022-12-08T18:10:02;12.48;;;5.55;;
59390;SDS011;53405;57.012;40.984;2022-12-08T18:12:51;13.63;;;6.78;;
59390;SDS011;53405;57.012;40.984;2022-12-08T18:15:39;13.10;;;6.63;;
59390;SDS011;53405;57.012;40.984;2022-12-08T18:18:26;12.70;;;6.57;;
59390;SDS011;53405;57.012;40.984;2022-12-08T18:21:14;15.38;;;6.68;;
59390;SDS011;53405;57.012;40.984;2022-12-08T18:24:06;13.93;;;6.78;;
59390;SDS011;53405;57.012;40.984;2022-12-08T18:26:55;19.60;;;7.55;;
59390;SDS011;53405;57.012;40.984;2022-12-08T18:29:44;11.48;;;4.78;;
59390;SDS011;53405;57.012;40.984;2022-12-08T18:32:31;12.63;;;6.90;;
59390;SDS011;53405;57.012;40.984;2022-12-08T18:35:23;14.82;;;6.72;;
59390;SDS011;53405;57.012;40.984;2022-12-08T18:38:10;13.23;;;5.38;;
59390;SDS011;53405;57.012;40.984;2022-12-08T18:41:08;11.63;;;5.72;;
59390;SDS011;53405;57.012;40.984;2022-12-08T18:44:00;12.13;;;6.35;;
59390;SDS011;53405;57.012;40.984;2022-12-08T18:46:47;16.42;;;6.60;;